Time;durP1;ratioP1;P1;durP2;ratioP2;P2;SDS_P1;SDS_P2;PMS_P1;PMS_P2;Temp;Humidity;BMP_temperature;BMP_pressure;BME280_temperature;BME280_humidity;BME280_pressure;Samples;Min_cycle;Max_cycle;Signal;HPM_P1;HPM_P2
2022/12/14 00:01:28;;;;;;;26.57;14.27;;;;;;;;;;5037562;28;20447;-63
2022/12/14 00:03:56;;;;;;;24.93;13.00;;;;;;;;;;5038110;28;20553;-63
2022/12/14 00:06:26;;;;;;;21.50;12.57;;;;;;;;;;5037822;28;20447;-62
2022/12/14 00:08:56;;;;;;;22.17;13.50;;;;;;;;;;5037132;28;20488;-63
2022/12/14 00:11:24;;;;;;;31.20;14.97;;;;;;;;;;5036846;28;21023;-62
2022/12/14 00:13:53;;;;;;;23.07;13.00;;;;;;;;;;5037672;28;20841;-63
2022/12/14 00:16:21;;;;;;;20.17;12.10;;;;;;;;;;5037303;28;20484;-64
2022/12/14 00:18:50;;;;;;;24.20;13.53;;;;;;;;;;5037719;28;20885;-63
2022/12/14 00:21:18;;;;;;;24.40;12.97;;;;;;;;;;5037959;28;20453;-63
2022/12/14 00:23:48;;;;;;;20.50;12.33;;;;;;;;;;5037843;28;20494;-63
2022/12/14 00:26:17;;;;;;;20.43;12.10;;;;;;;;;;5037814;28;20454;-63
2022/12/14 00:28:46;;;;;;;21.40;12.97;;;;;;;;;;5037582;28;20497;-63
2022/12/14 00:31:14;;;;;;;23.73;12.67;;;;;;;;;;5037628;28;20446;-62
2022/12/14 00:33:43;;;;;;;19.43;12.23;;;;;;;;;;5037761;28;20473;-64
2022/12/14 00:36:11;;;;;;;19.60;11.40;;;;;;;;;;5037608;28;20453;-63
2022/12/14 00:38:40;;;;;;;21.23;12.43;;;;;;;;;;5036664;28;21082;-63
2022/12/14 00:41:09;;;;;;;27.03;12.33;;;;;;;;;;5037498;28;20506;-63
2022/12/14 00:43:38;;;;;;;21.03;11.53;;;;;;;;;;5037217;28;20489;-63
2022/12/14 00:46:06;;;;;;;19.97;11.90;;;;;;;;;;5037771;28;20529;-62
2022/12/14 00:48:35;;;;;;;17.37;10.87;;;;;;;;;;5039365;28;20450;-62
2022/12/14 00:51:03;;;;;;;17.23;11.77;;;;;;;;;;5042450;28;20916;-63
2022/12/14 00:53:31;;;;;;;21.13;11.63;;;;;;;;;;5042010;28;20470;-64
2022/12/14 00:56:04;;;;;;;19.00;10.97;;;;;;;;;;5041404;28;20469;-63
2022/12/14 00:58:34;;;;;;;18.20;10.90;;;;;;;;;;5041565;28;20442;-63
2022/12/14 01:01:02;;;;;;;17.20;10.53;;;;;;;;;;5040965;28;20442;-63
2022/12/14 01:03:30;;;;;;;20.37;11.80;;;;;;;;;;5041274;28;20476;-64
2022/12/14 01:05:59;;;;;;;18.13;10.93;;;;;;;;;;5041507;28;20500;-63
2022/12/14 01:08:34;;;;;;;19.70;10.83;;;;;;;;;;5040751;28;20467;-64
2022/12/14 01:11:04;;;;;;;20.03;11.27;;;;;;;;;;5040934;28;20481;-63
2022/12/14 01:13:33;;;;;;;17.53;10.20;;;;;;;;;;5041262;28;20470;-63
2022/12/14 01:16:06;;;;;;;15.20;10.73;;;;;;;;;;5041039;28;20481;-62
2022/12/14 01:18:35;;;;;;;14.10;9.53;;;;;;;;;;5041053;28;20525;-63
2022/12/14 01:21:09;;;;;;;19.30;11.10;;;;;;;;;;5041266;28;20446;-63
2022/12/14 01:23:37;;;;;;;18.10;10.23;;;;;;;;;;5041156;28;20465;-63
2022/12/14 01:26:05;;;;;;;18.50;9.87;;;;;;;;;;5040904;28;20446;-63
2022/12/14 01:28:35;;;;;;;18.37;10.40;;;;;;;;;;5041262;28;20449;-63
2022/12/14 01:31:07;;;;;;;16.27;10.53;;;;;;;;;;5040497;28;20569;-64
2022/12/14 01:33:35;;;;;;;16.63;10.13;;;;;;;;;;5040986;28;20466;-62
2022/12/14 01:36:04;;;;;;;14.63;9.27;;;;;;;;;;5041043;28;20474;-64
2022/12/14 01:38:32;;;;;;;17.10;9.27;;;;;;;;;;5040107;28;20457;-63
2022/12/14 01:41:00;;;;;;;16.40;10.10;;;;;;;;;;5040410;28;20596;-62
2022/12/14 01:43:43;;;;;;;15.67;8.77;;;;;;;;;;5038185;28;20553;-63
2022/12/14 01:46:18;;;;;;;12.33;7.77;;;;;;;;;;5038992;28;20941;-63
2022/12/14 01:48:47;;;;;;;11.03;7.33;;;;;;;;;;5039348;28;20442;-63
2022/12/14 01:51:15;;;;;;;10.80;8.27;;;;;;;;;;5038204;28;20568;-63
2022/12/14 01:53:43;;;;;;;8.97;7.13;;;;;;;;;;5039213;28;20522;-63
2022/12/14 01:56:11;;;;;;;12.17;7.93;;;;;;;;;;5038956;28;20994;-63
2022/12/14 01:58:40;;;;;;;12.13;8.80;;;;;;;;;;5039088;28;20450;-63
2022/12/14 02:01:10;;;;;;;10.90;8.20;;;;;;;;;;5038489;28;20973;-63
2022/12/14 02:03:42;;;;;;;11.93;7.60;;;;;;;;;;5039227;28;20546;-64
2022/12/14 02:06:12;;;;;;;9.90;7.03;;;;;;;;;;5039226;28;20449;-63
2022/12/14 02:08:42;;;;;;;12.63;6.70;;;;;;;;;;5037404;28;20524;-63
2022/12/14 02:11:10;;;;;;;9.10;6.80;;;;;;;;;;5028894;28;20509;-63
2022/12/14 02:13:39;;;;;;;8.90;6.93;;;;;;;;;;5028946;28;20497;-63
2022/12/14 02:16:08;;;;;;;10.07;6.87;;;;;;;;;;5031423;28;20453;-63
2022/12/14 02:18:36;;;;;;;8.13;6.87;;;;;;;;;;5031447;28;20453;-63
2022/12/14 02:21:15;;;;;;;12.67;6.83;;;;;;;;;;5030980;28;20470;-63
2022/12/14 02:24:04;;;;;;;12.00;6.53;;;;;;;;;;5032410;28;20487;-63
2022/12/14 02:26:51;;;;;;;9.33;6.70;;;;;;;;;;5031437;28;20549;-63
2022/12/14 02:29:37;;;;;;;8.70;6.10;;;;;;;;;;5037351;28;20511;-63
2022/12/14 02:32:15;;;;;;;10.57;6.20;;;;;;;;;;5030543;28;20442;-63
2022/12/14 02:34:51;;;;;;;8.67;6.67;;;;;;;;;;5030599;28;20553;-63
2022/12/14 02:37:23;;;;;;;7.77;6.57;;;;;;;;;;5030896;28;20481;-63
2022/12/14 02:40:02;;;;;;;9.03;6.97;;;;;;;;;;5028683;28;20443;-64
2022/12/14 02:42:38;;;;;;;8.13;6.22;;;;;;;;;;4984029;28;1300506;-63
2022/12/14 02:45:09;;;;;;;9.17;7.17;;;;;;;;;;5031164;28;20230;-64
2022/12/14 02:47:41;;;;;;;13.77;6.00;;;;;;;;;;5029724;28;20517;-64
2022/12/14 02:50:12;;;;;;;10.47;7.00;;;;;;;;;;5031662;28;20482;-63
2022/12/14 02:52:45;;;;;;;9.57;6.37;;;;;;;;;;5031667;28;20484;-63
2022/12/14 02:55:16;;;;;;;7.93;6.40;;;;;;;;;;5031771;28;20876;-63
2022/12/14 02:57:45;;;;;;;9.27;7.10;;;;;;;;;;5029836;28;20785;-63
2022/12/14 03:00:13;;;;;;;8.53;6.13;;;;;;;;;;5037557;28;20500;-64
2022/12/14 03:02:43;;;;;;;9.50;6.70;;;;;;;;;;5039279;28;20446;-64
2022/12/14 03:05:12;;;;;;;8.63;6.20;;;;;;;;;;5026449;28;20514;-64
2022/12/14 03:07:42;;;;;;;11.77;7.07;;;;;;;;;;5039141;28;20525;-63
2022/12/14 03:10:17;;;;;;;12.00;7.70;;;;;;;;;;5038963;28;20514;-63
2022/12/14 03:12:46;;;;;;;9.67;6.83;;;;;;;;;;5037742;28;20441;-64
2022/12/14 03:15:15;;;;;;;10.60;6.90;;;;;;;;;;5036921;28;20469;-63
2022/12/14 03:17:47;;;;;;;10.40;7.20;;;;;;;;;;5037324;28;20449;-63
2022/12/14 03:20:18;;;;;;;9.40;6.43;;;;;;;;;;5036869;28;20446;-63
2022/12/14 03:22:48;;;;;;;8.43;6.70;;;;;;;;;;5036819;28;20871;-63
2022/12/14 03:25:18;;;;;;;9.07;6.77;;;;;;;;;;5036743;28;20520;-63
2022/12/14 03:27:48;;;;;;;10.47;7.00;;;;;;;;;;5036130;28;20458;-64
2022/12/14 03:30:17;;;;;;;9.63;6.13;;;;;;;;;;5038241;28;20454;-64
2022/12/14 03:33:09;;;;;;;9.20;6.47;;;;;;;;;;5038861;28;20450;-64
2022/12/14 03:35:39;;;;;;;8.50;5.90;;;;;;;;;;5038438;28;20537;-64
2022/12/14 03:38:10;;;;;;;9.90;6.40;;;;;;;;;;5038709;28;20478;-64
2022/12/14 03:40:42;;;;;;;8.40;6.43;;;;;;;;;;5038277;28;20450;-64
2022/12/14 03:43:13;;;;;;;9.77;6.67;;;;;;;;;;5038205;28;20497;-64
2022/12/14 03:45:45;;;;;;;9.27;6.57;;;;;;;;;;5025286;28;20456;-64
2022/12/14 03:48:19;;;;;;;10.00;7.13;;;;;;;;;;5038410;28;20454;-63
2022/12/14 03:50:49;;;;;;;10.87;6.20;;;;;;;;;;5038452;28;20571;-64
2022/12/14 03:53:20;;;;;;;10.07;6.00;;;;;;;;;;5038311;28;20486;-63
2022/12/14 03:55:54;;;;;;;8.10;7.00;;;;;;;;;;5037427;28;20584;-64
2022/12/14 03:58:27;;;;;;;8.67;5.97;;;;;;;;;;5038187;28;20460;-63
2022/12/14 04:00:58;;;;;;;7.93;5.97;;;;;;;;;;5037917;28;20526;-63
2022/12/14 04:03:32;;;;;;;8.17;6.23;;;;;;;;;;5037849;28;20450;-63
2022/12/14 04:06:02;;;;;;;10.67;6.77;;;;;;;;;;5037900;28;20529;-64
2022/12/14 04:08:33;;;;;;;9.07;6.50;;;;;;;;;;5037977;28;20484;-64
2022/12/14 04:19:31;;;;;;;7.83;6.27;;;;;;;;;;5037808;28;20533;-64
2022/12/14 04:22:03;;;;;;;9.53;6.43;;;;;;;;;;5037717;28;20477;-64
2022/12/14 04:27:22;;;;;;;11.60;7.80;;;;;;;;;;5034165;28;20461;-64
2022/12/14 04:29:57;;;;;;;12.43;8.30;;;;;;;;;;5036361;28;20823;-64
2022/12/14 04:32:28;;;;;;;11.93;7.20;;;;;;;;;;5037477;28;20516;-64
2022/12/14 04:35:00;;;;;;;15.50;9.83;;;;;;;;;;5037786;28;20474;-64
2022/12/14 04:37:29;;;;;;;16.13;9.83;;;;;;;;;;5037542;28;20453;-64
2022/12/14 04:39:59;;;;;;;13.30;8.60;;;;;;;;;;5037704;28;20451;-64
2022/12/14 04:42:31;;;;;;;16.77;9.23;;;;;;;;;;5037259;28;20557;-64
2022/12/14 04:45:02;;;;;;;18.67;10.30;;;;;;;;;;5037345;28;20515;-64
2022/12/14 04:47:32;;;;;;;18.77;9.33;;;;;;;;;;5037480;28;20504;-63
2022/12/14 04:50:03;;;;;;;14.37;8.93;;;;;;;;;;5037660;28;20446;-64
2022/12/14 04:52:34;;;;;;;14.00;7.90;;;;;;;;;;5037660;28;20486;-64
2022/12/14 04:55:04;;;;;;;12.90;7.67;;;;;;;;;;5037523;28;20469;-63
2022/12/14 04:57:35;;;;;;;13.17;8.10;;;;;;;;;;5037612;28;20532;-63
2022/12/14 05:00:05;;;;;;;12.93;7.37;;;;;;;;;;5036214;28;20462;-64
2022/12/14 05:02:38;;;;;;;13.40;8.00;;;;;;;;;;5037659;28;20469;-64
2022/12/14 05:05:11;;;;;;;11.70;7.20;;;;;;;;;;5037279;28;20985;-64
2022/12/14 05:07:46;;;;;;;10.60;7.57;;;;;;;;;;5036198;28;20466;-64
2022/12/14 05:10:17;;;;;;;12.10;7.13;;;;;;;;;;5037432;28;20500;-63
2022/12/14 05:12:48;;;;;;;12.60;7.13;;;;;;;;;;5037032;28;20846;-63
2022/12/14 05:15:19;;;;;;;8.60;6.03;;;;;;;;;;5037222;28;20505;-64
2022/12/14 05:17:47;;;;;;;9.73;6.87;;;;;;;;;;5037075;28;20442;-64
2022/12/14 05:20:18;;;;;;;12.50;7.53;;;;;;;;;;5037470;28;20449;-64
2022/12/14 05:22:46;;;;;;;10.30;7.10;;;;;;;;;;5037210;28;20529;-64
2022/12/14 05:25:14;;;;;;;11.90;7.67;;;;;;;;;;5037107;28;20462;-64
2022/12/14 05:27:42;;;;;;;10.70;7.07;;;;;;;;;;5037202;28;20453;-64
2022/12/14 05:30:11;;;;;;;11.17;7.67;;;;;;;;;;5036880;28;20442;-63
2022/12/14 05:32:39;;;;;;;10.77;7.23;;;;;;;;;;5036948;28;20525;-64
2022/12/14 05:35:08;;;;;;;10.40;7.10;;;;;;;;;;5038818;28;20996;-63
2022/12/14 05:37:37;;;;;;;11.20;7.23;;;;;;;;;;5040102;28;20469;-64
2022/12/14 05:40:06;;;;;;;13.47;8.40;;;;;;;;;;5040551;28;20871;-64
2022/12/14 05:42:34;;;;;;;14.20;7.60;;;;;;;;;;5040465;28;20474;-63
2022/12/14 05:45:11;;;;;;;11.73;8.20;;;;;;;;;;5040219;28;20830;-63
2022/12/14 05:47:39;;;;;;;14.97;8.53;;;;;;;;;;5040757;28;20481;-63
2022/12/14 05:50:08;;;;;;;11.93;7.47;;;;;;;;;;5040278;28;20453;-64
2022/12/14 05:52:36;;;;;;;15.17;8.10;;;;;;;;;;5039279;28;20881;-64
2022/12/14 05:55:06;;;;;;;13.03;8.80;;;;;;;;;;5039922;28;20484;-63
2022/12/14 05:57:34;;;;;;;11.57;7.80;;;;;;;;;;5032238;28;21009;-64
2022/12/14 06:00:02;;;;;;;13.30;8.87;;;;;;;;;;5032175;28;20438;-63
2022/12/14 06:02:30;;;;;;;12.80;8.47;;;;;;;;;;5028421;28;20521;-63
2022/12/14 06:04:58;;;;;;;13.30;7.90;;;;;;;;;;5031690;28;20482;-63
2022/12/14 06:07:26;;;;;;;11.90;7.47;;;;;;;;;;5030222;28;20447;-63
2022/12/14 06:09:55;;;;;;;10.27;7.53;;;;;;;;;;5034106;28;20450;-64
2022/12/14 06:12:24;;;;;;;9.43;7.40;;;;;;;;;;5039884;28;20489;-64
2022/12/14 06:14:52;;;;;;;10.13;6.97;;;;;;;;;;5022522;28;20566;-63
2022/12/14 06:17:20;;;;;;;13.27;7.30;;;;;;;;;;5033729;28;20525;-64
2022/12/14 06:19:48;;;;;;;10.10;7.17;;;;;;;;;;5040322;28;20449;-64
2022/12/14 06:22:17;;;;;;;12.80;8.03;;;;;;;;;;5035241;28;20455;-63
2022/12/14 06:24:45;;;;;;;13.80;9.20;;;;;;;;;;5039871;28;20466;-64
2022/12/14 06:27:13;;;;;;;18.30;9.63;;;;;;;;;;5039657;28;20465;-64
2022/12/14 06:29:43;;;;;;;15.40;10.30;;;;;;;;;;5049169;28;20466;-64
2022/12/14 06:32:11;;;;;;;14.30;9.47;;;;;;;;;;5039705;28;20518;-64
2022/12/14 06:34:39;;;;;;;14.97;8.33;;;;;;;;;;5039619;28;20458;-63
2022/12/14 06:37:09;;;;;;;14.60;9.03;;;;;;;;;;5039394;28;20820;-64
2022/12/14 06:39:37;;;;;;;13.73;8.03;;;;;;;;;;5038725;28;20533;-64
2022/12/14 06:42:06;;;;;;;12.43;7.83;;;;;;;;;;5034926;28;20478;-64
2022/12/14 06:44:34;;;;;;;12.80;8.87;;;;;;;;;;5038559;28;20450;-64
2022/12/14 06:47:04;;;;;;;11.77;8.43;;;;;;;;;;5036732;28;20462;-63
2022/12/14 06:49:32;;;;;;;9.87;7.43;;;;;;;;;;5038997;28;20454;-64
2022/12/14 06:51:59;;;;;;;13.97;7.80;;;;;;;;;;5039237;28;20508;-64
2022/12/14 06:54:29;;;;;;;13.33;8.20;;;;;;;;;;5037644;28;20478;-64
2022/12/14 06:56:57;;;;;;;16.80;8.87;;;;;;;;;;5035040;28;20850;-64
2022/12/14 06:59:25;;;;;;;15.37;8.43;;;;;;;;;;5032824;28;20437;-64
2022/12/14 07:01:53;;;;;;;11.00;7.77;;;;;;;;;;5032968;28;20522;-64
2022/12/14 07:04:23;;;;;;;16.47;8.00;;;;;;;;;;5035798;28;20555;-64
2022/12/14 07:06:51;;;;;;;20.63;11.10;;;;;;;;;;5036182;28;20476;-64
2022/12/14 07:09:19;;;;;;;11.77;8.20;;;;;;;;;;5038883;28;20503;-64
2022/12/14 07:11:51;;;;;;;13.17;7.60;;;;;;;;;;5035320;28;20971;-64
2022/12/14 07:14:19;;;;;;;10.83;7.23;;;;;;;;;;5035281;28;20470;-64
2022/12/14 07:16:48;;;;;;;14.70;9.17;;;;;;;;;;5038335;28;20989;-64
2022/12/14 07:19:16;;;;;;;12.30;8.90;;;;;;;;;;5038597;28;20984;-64
2022/12/14 07:21:46;;;;;;;12.37;7.73;;;;;;;;;;5038956;28;20453;-64
2022/12/14 07:24:14;;;;;;;9.57;8.00;;;;;;;;;;5038441;28;20466;-64
2022/12/14 07:26:45;;;;;;;12.27;7.47;;;;;;;;;;5038608;28;20501;-64
2022/12/14 07:29:15;;;;;;;18.17;8.63;;;;;;;;;;5038733;28;20449;-64
2022/12/14 07:31:43;;;;;;;11.80;7.93;;;;;;;;;;5037413;28;20469;-64
2022/12/14 07:34:16;;;;;;;13.73;8.37;;;;;;;;;;5038241;28;20496;-64
2022/12/14 07:36:46;;;;;;;13.23;8.33;;;;;;;;;;5038610;28;20449;-64
2022/12/14 07:39:14;;;;;;;12.03;7.90;;;;;;;;;;5038503;28;20438;-64
2022/12/14 07:41:43;;;;;;;13.87;8.03;;;;;;;;;;5037866;28;20885;-64
2022/12/14 07:44:12;;;;;;;14.63;9.13;;;;;;;;;;5036830;28;20481;-64
2022/12/14 07:46:40;;;;;;;16.97;9.70;;;;;;;;;;5037727;28;20788;-64
2022/12/14 07:49:09;;;;;;;10.33;7.73;;;;;;;;;;5038312;28;20481;-64
2022/12/14 07:51:39;;;;;;;11.57;8.20;;;;;;;;;;5038292;28;20446;-64
2022/12/14 07:54:10;;;;;;;12.70;8.30;;;;;;;;;;5038009;28;20545;-64
2022/12/14 07:56:40;;;;;;;14.03;9.43;;;;;;;;;;5037836;28;20442;-64
2022/12/14 07:59:11;;;;;;;14.97;9.10;;;;;;;;;;5036766;28;20484;-64
2022/12/14 08:01:39;;;;;;;13.93;8.53;;;;;;;;;;5037774;28;20572;-64
2022/12/14 08:04:09;;;;;;;12.70;8.30;;;;;;;;;;5038037;28;20469;-64
2022/12/14 08:06:38;;;;;;;17.17;9.10;;;;;;;;;;5037798;28;20442;-64
2022/12/14 08:09:06;;;;;;;13.47;9.50;;;;;;;;;;5037342;28;20564;-64
2022/12/14 08:11:36;;;;;;;13.17;8.97;;;;;;;;;;5031556;28;20897;-64
2022/12/14 08:14:05;;;;;;;17.10;8.73;;;;;;;;;;5030339;28;20494;-63
2022/12/14 08:16:33;;;;;;;13.30;8.60;;;;;;;;;;5031569;28;21154;-64
2022/12/14 08:19:01;;;;;;;14.93;9.17;;;;;;;;;;5027752;28;20466;-64
2022/12/14 08:21:30;;;;;;;17.13;8.37;;;;;;;;;;5037301;28;20539;-64
2022/12/14 08:23:58;;;;;;;12.53;8.13;;;;;;;;;;5034379;28;20824;-63
2022/12/14 08:26:26;;;;;;;14.63;9.27;;;;;;;;;;5020384;28;20490;-62
2022/12/14 08:29:04;;;;;;;12.33;8.10;;;;;;;;;;5022391;28;20442;-64
2022/12/14 08:31:32;;;;;;;13.27;8.97;;;;;;;;;;5019900;28;20858;-64
2022/12/14 08:34:01;;;;;;;14.43;10.00;;;;;;;;;;5034809;28;20486;-64
2022/12/14 08:36:31;;;;;;;16.03;9.53;;;;;;;;;;5037113;28;20533;-64
2022/12/14 08:39:00;;;;;;;14.50;9.20;;;;;;;;;;5037553;28;20452;-64
2022/12/14 08:41:28;;;;;;;15.83;10.03;;;;;;;;;;5036779;28;20831;-64
2022/12/14 08:43:57;;;;;;;14.03;9.00;;;;;;;;;;5036887;28;20472;-64
2022/12/14 08:46:28;;;;;;;14.07;9.40;;;;;;;;;;5035326;28;20482;-64
2022/12/14 08:48:57;;;;;;;13.93;9.83;;;;;;;;;;5037216;28;20445;-65
2022/12/14 08:51:26;;;;;;;15.13;8.23;;;;;;;;;;5037186;28;20442;-64
2022/12/14 08:53:54;;;;;;;18.10;10.10;;;;;;;;;;5031407;28;20493;-64
2022/12/14 08:56:24;;;;;;;14.50;9.70;;;;;;;;;;5028191;28;20451;-64
2022/12/14 08:58:52;;;;;;;20.27;11.40;;;;;;;;;;5030902;28;20455;-64
2022/12/14 09:01:21;;;;;;;17.40;11.10;;;;;;;;;;5027907;28;20482;-64
2022/12/14 09:04:03;;;;;;;17.57;10.10;;;;;;;;;;5029616;28;20554;-64
2022/12/14 09:06:33;;;;;;;16.47;10.37;;;;;;;;;;5030746;28;20442;-64
2022/12/14 09:09:01;;;;;;;13.77;9.97;;;;;;;;;;5037455;28;20481;-64
2022/12/14 09:11:29;;;;;;;17.30;10.37;;;;;;;;;;5041024;28;20449;-64
2022/12/14 09:13:57;;;;;;;14.70;10.13;;;;;;;;;;5040795;28;20516;-64
2022/12/14 09:16:26;;;;;;;17.50;10.07;;;;;;;;;;5040500;28;20442;-64
2022/12/14 09:18:54;;;;;;;15.67;10.17;;;;;;;;;;5041303;28;20453;-64
2022/12/14 09:21:24;;;;;;;14.80;10.47;;;;;;;;;;5040912;28;20960;-64
2022/12/14 09:23:52;;;;;;;20.67;11.40;;;;;;;;;;5039814;28;20490;-65
2022/12/14 09:26:26;;;;;;;16.97;10.97;;;;;;;;;;5040821;28;20865;-64
2022/12/14 09:28:55;;;;;;;16.90;11.17;;;;;;;;;;5041269;28;20500;-64
2022/12/14 09:31:25;;;;;;;17.67;9.63;;;;;;;;;;5040549;28;20476;-64
2022/12/14 09:33:55;;;;;;;17.83;10.20;;;;;;;;;;5039852;28;20493;-64
2022/12/14 09:36:26;;;;;;;15.73;9.73;;;;;;;;;;5037160;28;20458;-64
2022/12/14 09:38:55;;;;;;;17.47;10.20;;;;;;;;;;5040814;28;20500;-64
2022/12/14 09:41:30;;;;;;;15.87;10.10;;;;;;;;;;5040570;28;20474;-64
2022/12/14 09:44:05;;;;;;;16.80;11.33;;;;;;;;;;5040795;28;20465;-64
2022/12/14 09:46:43;;;;;;;18.80;11.27;;;;;;;;;;5040211;28;20454;-64
2022/12/14 09:49:17;;;;;;;20.80;11.87;;;;;;;;;;5040581;28;20811;-64
2022/12/14 09:51:47;;;;;;;17.97;11.00;;;;;;;;;;5040765;28;20520;-64
2022/12/14 09:54:17;;;;;;;20.53;11.67;;;;;;;;;;5040143;28;20490;-65
2022/12/14 09:56:45;;;;;;;23.17;11.77;;;;;;;;;;5040498;28;20446;-64
2022/12/14 09:59:16;;;;;;;20.97;11.60;;;;;;;;;;5040274;28;20941;-64
2022/12/14 10:01:53;;;;;;;21.47;11.13;;;;;;;;;;5037881;28;20492;-64
2022/12/14 10:04:47;;;;;;;21.53;10.73;;;;;;;;;;5037028;28;20476;-64
2022/12/14 10:07:20;;;;;;;23.27;12.73;;;;;;;;;;5036465;28;20530;-65
2022/12/14 10:09:50;;;;;;;17.93;11.17;;;;;;;;;;5039380;28;20514;-64
2022/12/14 10:12:24;;;;;;;19.13;11.80;;;;;;;;;;5039404;28;20809;-65
2022/12/14 10:15:04;;;;;;;16.73;10.73;;;;;;;;;;5029243;28;20524;-64
2022/12/14 10:17:35;;;;;;;16.90;10.73;;;;;;;;;;5038662;28;20446;-64
2022/12/14 10:20:09;;;;;;;16.33;10.40;;;;;;;;;;5036239;28;20521;-65
2022/12/14 10:22:44;;;;;;;17.83;12.77;;;;;;;;;;5034608;28;20454;-64
2022/12/14 10:25:13;;;;;;;21.33;11.53;;;;;;;;;;5031195;28;21015;-64
2022/12/14 10:27:45;;;;;;;18.43;11.27;;;;;;;;;;5039565;28;20493;-64
2022/12/14 10:30:34;;;;;;;16.40;10.80;;;;;;;;;;5038450;28;20449;-64
2022/12/14 10:33:10;;;;;;;19.60;11.70;;;;;;;;;;5039671;28;20481;-64
2022/12/14 10:35:40;;;;;;;21.00;10.83;;;;;;;;;;5039609;28;20918;-65
2022/12/14 10:38:17;;;;;;;16.23;10.93;;;;;;;;;;5039619;28;20446;-64
2022/12/14 10:40:50;;;;;;;13.53;10.13;;;;;;;;;;5039183;28;20553;-64
2022/12/14 10:43:26;;;;;;;12.97;8.87;;;;;;;;;;5038239;28;20508;-65
2022/12/14 10:45:58;;;;;;;14.63;10.40;;;;;;;;;;5039530;28;20481;-64
2022/12/14 10:48:31;;;;;;;15.73;9.83;;;;;;;;;;5039219;28;20446;-64
2022/12/14 10:51:01;;;;;;;10.87;7.27;;;;;;;;;;5029733;28;20501;-64
2022/12/14 10:53:33;;;;;;;11.57;7.40;;;;;;;;;;5036480;28;20234;-64
2022/12/14 10:56:11;;;;;;;12.03;6.80;;;;;;;;;;5038782;28;21065;-65
2022/12/14 10:58:39;;;;;;;8.93;6.13;;;;;;;;;;5039007;28;20443;-64
2022/12/14 11:01:11;;;;;;;9.90;6.07;;;;;;;;;;5038631;28;20208;-64
2022/12/14 11:03:41;;;;;;;9.80;5.63;;;;;;;;;;5039136;28;20469;-64
2022/12/14 11:06:12;;;;;;;8.13;5.63;;;;;;;;;;5038836;28;20529;-65
2022/12/14 11:08:44;;;;;;;8.10;5.33;;;;;;;;;;5039203;28;20238;-65
2022/12/14 11:11:16;;;;;;;6.40;4.80;;;;;;;;;;5038141;28;20207;-65
2022/12/14 11:13:53;;;;;;;6.50;5.13;;;;;;;;;;5036698;28;20228;-64
2022/12/14 11:16:26;;;;;;;7.83;4.83;;;;;;;;;;5038229;28;20200;-65
2022/12/14 11:19:03;;;;;;;6.27;4.73;;;;;;;;;;5035992;28;20534;-65
2022/12/14 11:21:33;;;;;;;8.10;5.53;;;;;;;;;;5038779;28;20207;-65
2022/12/14 11:24:02;;;;;;;6.40;4.67;;;;;;;;;;5038405;28;20246;-65
2022/12/14 11:26:33;;;;;;;7.93;5.57;;;;;;;;;;5038684;28;20221;-65
2022/12/14 11:29:02;;;;;;;7.07;5.30;;;;;;;;;;5038713;28;20211;-65
2022/12/14 11:31:33;;;;;;;7.83;5.50;;;;;;;;;;5038039;28;20250;-65
2022/12/14 11:34:02;;;;;;;8.10;5.97;;;;;;;;;;5038236;28;20238;-66
2022/12/14 11:36:32;;;;;;;6.83;5.90;;;;;;;;;;5038246;28;20200;-65
2022/12/14 11:39:01;;;;;;;5.00;4.50;;;;;;;;;;5036912;28;20208;-65
2022/12/14 11:41:32;;;;;;;6.80;5.23;;;;;;;;;;5031575;28;20240;-65
2022/12/14 11:44:02;;;;;;;7.47;5.33;;;;;;;;;;5035828;28;20714;-66
2022/12/14 11:46:43;;;;;;;6.37;5.40;;;;;;;;;;5035856;28;20223;-65
2022/12/14 11:49:23;;;;;;;6.13;4.83;;;;;;;;;;5030892;28;20242;-65
2022/12/14 11:51:58;;;;;;;5.73;5.10;;;;;;;;;;5033856;28;20195;-64
2022/12/14 11:54:27;;;;;;;5.00;4.50;;;;;;;;;;5028311;28;20235;-65
2022/12/14 11:56:59;;;;;;;6.67;4.47;;;;;;;;;;5034717;28;20267;-65
2022/12/14 11:59:30;;;;;;;5.33;4.17;;;;;;;;;;5038236;28;20207;-64
2022/12/14 12:02:07;;;;;;;6.70;4.47;;;;;;;;;;5038180;28;20264;-64
2022/12/14 12:04:43;;;;;;;6.10;4.23;;;;;;;;;;5035315;28;20219;-65
2022/12/14 12:07:13;;;;;;;5.17;3.90;;;;;;;;;;5036936;28;20208;-64
2022/12/14 12:09:41;;;;;;;6.07;4.37;;;;;;;;;;5037961;28;20241;-65
2022/12/14 12:12:17;;;;;;;5.50;4.50;;;;;;;;;;5034892;28;20231;-65
2022/12/14 12:14:46;;;;;;;5.07;4.30;;;;;;;;;;5034787;28;20246;-65
2022/12/14 12:17:18;;;;;;;6.30;4.43;;;;;;;;;;5037899;28;20204;-64
2022/12/14 12:19:50;;;;;;;6.33;4.77;;;;;;;;;;5032346;28;20214;-63
2022/12/14 12:22:19;;;;;;;6.83;4.87;;;;;;;;;;5031694;28;20246;-64
2022/12/14 12:24:53;;;;;;;5.80;5.07;;;;;;;;;;5031429;28;20594;-64
2022/12/14 12:27:43;;;;;;;6.47;4.80;;;;;;;;;;5030995;28;20200;-63
2022/12/14 12:30:19;;;;;;;5.00;4.50;;;;;;;;;;5028714;28;20223;-63
2022/12/14 12:32:50;;;;;;;5.10;4.27;;;;;;;;;;5032931;28;20269;-63
2022/12/14 12:35:21;;;;;;;4.67;4.10;;;;;;;;;;5035304;28;20766;-63
2022/12/14 12:37:50;;;;;;;4.80;4.30;;;;;;;;;;5036712;28;20283;-62
2022/12/14 12:40:21;;;;;;;5.80;4.30;;;;;;;;;;5036516;28;20275;-63
2022/12/14 12:42:53;;;;;;;5.10;4.30;;;;;;;;;;5034040;28;20231;-64
2022/12/14 12:45:24;;;;;;;5.97;4.40;;;;;;;;;;5040059;28;20318;-63
2022/12/14 12:47:54;;;;;;;6.17;4.43;;;;;;;;;;5040478;28;20245;-64
2022/12/14 12:50:24;;;;;;;25.97;10.73;;;;;;;;;;5040274;28;20199;-63
2022/12/14 12:52:55;;;;;;;16.67;9.43;;;;;;;;;;5040635;28;20205;-64
2022/12/14 12:55:30;;;;;;;10.07;6.80;;;;;;;;;;5038252;28;20571;-63
2022/12/14 12:58:01;;;;;;;12.33;7.73;;;;;;;;;;5040312;28;20214;-64
2022/12/14 13:00:30;;;;;;;13.07;8.37;;;;;;;;;;5036953;28;20630;-62
2022/12/14 13:02:59;;;;;;;10.63;7.57;;;;;;;;;;5039553;28;20207;-64
2022/12/14 13:05:28;;;;;;;19.43;11.27;;;;;;;;;;5038070;28;20224;-63
2022/12/14 13:08:18;;;;;;;14.20;9.23;;;;;;;;;;5039311;28;20207;-63
2022/12/14 13:10:47;;;;;;;20.53;11.23;;;;;;;;;;5037560;28;20268;-63
2022/12/14 13:13:38;;;;;;;20.80;12.23;;;;;;;;;;5038608;28;20242;-64
2022/12/14 13:16:11;;;;;;;22.43;13.07;;;;;;;;;;5037219;28;20234;-64
2022/12/14 13:18:41;;;;;;;15.73;9.17;;;;;;;;;;5039221;28;20213;-63
2022/12/14 13:21:31;;;;;;;12.53;6.77;;;;;;;;;;5039425;28;20208;-63
2022/12/14 13:23:59;;;;;;;18.97;9.60;;;;;;;;;;5040601;28;20230;-63
2022/12/14 13:26:40;;;;;;;8.53;5.80;;;;;;;;;;5039441;28;20204;-64
2022/12/14 13:29:36;;;;;;;7.70;5.50;;;;;;;;;;5039523;28;20663;-64
2022/12/14 13:32:09;;;;;;;10.23;5.50;;;;;;;;;;5040445;28;20203;-63
2022/12/14 13:34:47;;;;;;;9.83;4.90;;;;;;;;;;5040736;28;20227;-64
2022/12/14 13:37:23;;;;;;;8.17;4.40;;;;;;;;;;5040447;28;20242;-63
2022/12/14 13:40:06;;;;;;;5.00;4.27;;;;;;;;;;5040538;28;20218;-62
2022/12/14 13:42:39;;;;;;;8.23;6.33;;;;;;;;;;5040261;28;20239;-64
2022/12/14 13:45:17;;;;;;;11.53;7.40;;;;;;;;;;5035458;28;20310;-63
2022/12/14 13:47:48;;;;;;;32.20;17.63;;;;;;;;;;5040851;28;20235;-63
2022/12/14 14:04:45;;;;;;;6.33;4.60;;;;;;;;;;4930138;29;20269;-62
2022/12/14 14:07:31;;;;;;;9.10;4.67;;;;;;;;;;4932341;29;20562;-61
2022/12/14 14:10:03;;;;;;;5.43;4.67;;;;;;;;;;4932711;29;20255;-61
2022/12/14 14:12:33;;;;;;;5.60;4.13;;;;;;;;;;4932941;29;20623;-63
2022/12/14 14:15:03;;;;;;;4.53;4.07;;;;;;;;;;4930806;29;20203;-63
2022/12/14 14:17:37;;;;;;;4.57;3.77;;;;;;;;;;4934907;29;20627;-63
2022/12/14 14:20:27;;;;;;;4.77;4.33;;;;;;;;;;4932711;29;20255;-63
2022/12/14 14:23:09;;;;;;;3.90;3.50;;;;;;;;;;4933109;29;20231;-63
2022/12/14 14:25:39;;;;;;;6.13;3.90;;;;;;;;;;4932337;29;20230;-64
2022/12/14 14:28:10;;;;;;;3.37;3.07;;;;;;;;;;4933603;29;20689;-64
2022/12/14 14:30:41;;;;;;;3.37;2.87;;;;;;;;;;4931630;29;20671;-63
2022/12/14 14:33:26;;;;;;;4.50;3.30;;;;;;;;;;4933223;29;20253;-64
2022/12/14 14:36:17;;;;;;;3.80;3.50;;;;;;;;;;4930532;29;20207;-64
2022/12/14 14:38:46;;;;;;;3.20;2.90;;;;;;;;;;4936001;29;20225;-65
2022/12/14 14:41:21;;;;;;;3.47;2.87;;;;;;;;;;4935275;29;20255;-66
2022/12/14 14:43:50;;;;;;;3.97;3.20;;;;;;;;;;4936194;29;20230;-64
2022/12/14 14:46:31;;;;;;;4.77;2.77;;;;;;;;;;4930444;29;20211;-64
2022/12/14 14:49:00;;;;;;;2.77;2.47;;;;;;;;;;4936525;29;20207;-64
2022/12/14 14:51:30;;;;;;;4.20;2.93;;;;;;;;;;4932622;29;20233;-64
2022/12/14 14:54:28;;;;;;;3.50;2.77;;;;;;;;;;4936592;29;20598;-64
2022/12/14 14:57:31;;;;;;;5.03;2.80;;;;;;;;;;4889542;29;20213;-64
2022/12/14 15:00:00;;;;;;;3.30;3.00;;;;;;;;;;4934532;29;20203;-64
2022/12/14 15:02:33;;;;;;;5.80;3.00;;;;;;;;;;4919724;29;20750;-64
2022/12/14 15:05:02;;;;;;;3.10;2.60;;;;;;;;;;4921703;29;20322;-64
2022/12/14 15:07:53;;;;;;;6.03;2.73;;;;;;;;;;4921739;29;20222;-64
2022/12/14 15:10:26;;;;;;;3.83;2.90;;;;;;;;;;4920818;29;20253;-64
2022/12/14 15:12:56;;;;;;;3.10;2.40;;;;;;;;;;4922090;29;20227;-64
2022/12/14 15:15:29;;;;;;;2.50;2.30;;;;;;;;;;4920960;29;20706;-65
2022/12/14 15:18:12;;;;;;;2.43;2.20;;;;;;;;;;4919157;29;20247;-65
2022/12/14 15:20:40;;;;;;;5.07;3.97;;;;;;;;;;4921069;29;20219;-65
2022/12/14 15:23:13;;;;;;;4.90;4.43;;;;;;;;;;4919954;29;20242;-65